TimeMST,TemperatureF,Dew PointF,Humidity,Sea Level PressureIn,VisibilityMPH,Wind Direction,Wind SpeedMPH,Gust SpeedMPH,PrecipitationIn,Events,Conditions,WindDirDegrees,DateUTC
1:56 AM,42.1,19.0,40,29.96,10.0,WSW,20.7,33.4,N/A,,Clear,250,2013-02-03 08:56:00
2:56 AM,39.9,19.0,43,29.95,10.0,WSW,13.8,-,N/A,,Clear,250,2013-02-03 09:56:00
3:56 AM,37.0,19.0,48,29.94,10.0,West,10.4,-,N/A,,Clear,280,2013-02-03 10:56:00
4:56 AM,37.0,18.0,46,29.94,10.0,Variable,6.9,-,N/A,,Clear,0,2013-02-03 11:56:00
5:56 AM,39.0,18.0,43,29.95,10.0,NW,3.5,-,N/A,,Clear,320,2013-02-03 12:56:00
6:56 AM,37.9,18.0,45,29.94,10.0,West,11.5,-,N/A,,Clear,270,2013-02-03 13:56:00
7:56 AM,39.9,18.0,41,29.94,10.0,West,16.1,-,N/A,,Clear,270,2013-02-03 14:56:00
8:56 AM,39.9,19.9,45,29.94,10.0,West,19.6,-,N/A,,Scattered Clouds,260,2013-02-03 15:56:00
9:56 AM,43.0,19.9,40,29.94,10.0,West,25.3,32.2,N/A,,Partly Cloudy,260,2013-02-03 16:56:00
10:56 AM,48.0,19.0,32,29.94,10.0,WSW,29.9,33.4,N/A,,Clear,250,2013-02-03 17:56:00
11:56 AM,50.0,19.0,29,29.94,10.0,WSW,23.0,29.9,N/A,,Clear,250,2013-02-03 18:56:00
12:56 PM,46.9,19.0,33,29.92,10.0,West,23.0,31.1,N/A,,Clear,270,2013-02-03 19:56:00
1:56 PM,48.9,21.0,33,29.91,10.0,WSW,21.9,27.6,N/A,,Clear,250,2013-02-03 20:56:00
2:56 PM,48.9,21.0,33,29.90,10.0,WSW,28.8,36.8,N/A,,Clear,250,2013-02-03 21:56:00
3:56 PM,46.0,21.0,37,29.91,10.0,WSW,26.5,33.4,N/A,,Clear,250,2013-02-03 22:56:00
4:56 PM,41.0,21.0,45,29.94,10.0,WSW,24.2,32.2,N/A,,Clear,250,2013-02-03 23:56:00
5:56 PM,37.9,21.9,53,29.92,10.0,West,23.0,28.8,N/A,,Clear,260,2013-02-04 00:56:00
6:56 PM,36.0,21.9,57,29.92,10.0,WSW,23.0,-,N/A,,Clear,250,2013-02-04 01:56:00
7:56 PM,37.0,21.9,54,29.89,10.0,WSW,18.4,-,N/A,,Scattered Clouds,250,2013-02-04 02:56:00
8:56 PM,37.9,21.9,53,29.88,10.0,West,21.9,-,N/A,,Overcast,260,2013-02-04 03:56:00
9:56 PM,39.0,23.0,53,29.86,10.0,West,24.2,28.8,N/A,,Mostly Cloudy,260,2013-02-04 04:56:00
10:56 PM,39.0,23.0,53,29.83,10.0,WSW,19.6,31.1,N/A,,Clear,250,2013-02-04 05:56:00
11:56 PM,37.9,21.9,53,29.82,10.0,WSW,24.2,-,N/A,,Clear,250,2013-02-04 06:56:00